Time;durP1;ratioP1;P1;durP2;ratioP2;P2;SDS_P1;SDS_P2;PMS_P1;PMS_P2;Temp;Humidity;BMP_temperature;BMP_pressure;BME280_temperature;BME280_humidity;BME280_pressure;Samples;Min_cycle;Max_cycle;Signal;HPM_P1;HPM_P2
2023/03/06 00:04:01;;;;;;;3.33;1.35;;;15.70;63.70;;;;;;10448961;28;20025;-57
2023/03/06 00:09:02;;;;;;;1.92;1.30;;;15.60;63.60;;;;;;10449768;28;20049;-57
2023/03/06 00:14:03;;;;;;;2.00;1.23;;;15.60;63.70;;;;;;10450033;28;20071;-57
2023/03/06 00:19:04;;;;;;;1.77;1.00;;;15.60;63.70;;;;;;10448699;28;20025;-57
2023/03/06 00:24:04;;;;;;;2.72;1.13;;;15.60;64.20;;;;;;10449220;28;20468;-57
2023/03/06 00:29:08;;;;;;;3.25;1.08;;;15.60;63.70;;;;;;10449782;28;20032;-58
2023/03/06 00:34:09;;;;;;;2.03;1.23;;;15.60;63.60;;;;;;10425799;28;20021;-56
2023/03/06 00:39:09;;;;;;;2.55;1.10;;;15.50;63.50;;;;;;10448615;28;20052;-58
2023/03/06 00:44:10;;;;;;;4.28;1.65;;;15.50;63.50;;;;;;10446538;28;20060;-57
2023/03/06 00:49:11;;;;;;;3.97;1.50;;;15.50;63.50;;;;;;10419983;28;20029;-57
2023/03/06 00:54:12;;;;;;;2.35;1.30;;;15.50;63.50;;;;;;10461133;28;20021;-58
2023/03/06 00:59:12;;;;;;;3.15;1.40;;;15.50;63.50;;;;;;10446495;28;21128;-57
2023/03/06 01:04:13;;;;;;;2.22;1.10;;;15.40;63.40;;;;;;10447579;28;20017;-58
2023/03/06 01:09:14;;;;;;;1.75;1.10;;;15.40;63.50;;;;;;10446220;28;20091;-57
2023/03/06 01:14:17;;;;;;;1.98;1.10;;;15.40;63.40;;;;;;10446177;28;20048;-57
2023/03/06 01:19:18;;;;;;;2.78;1.50;;;15.40;63.40;;;;;;10445864;28;20021;-57
2023/03/06 01:24:19;;;;;;;2.03;1.10;;;15.40;63.50;;;;;;10447283;28;20021;-57
2023/03/06 01:29:20;;;;;;;2.88;1.02;;;15.40;63.50;;;;;;10445371;28;20078;-57
2023/03/06 01:34:20;;;;;;;1.85;1.20;;;15.40;63.50;;;;;;10446754;28;20017;-57
2023/03/06 01:39:21;;;;;;;2.33;1.10;;;15.40;63.40;;;;;;10445569;28;20054;-56
2023/03/06 01:44:22;;;;;;;1.75;1.08;;;15.30;63.40;;;;;;10446564;28;20109;-57
2023/03/06 01:49:38;;;;;;;2.63;1.10;;;15.30;63.30;;;;;;10432673;28;20444;-56
2023/03/06 01:54:58;;;;;;;2.40;1.55;;;15.30;63.40;;;;;;10449323;28;20070;-57
2023/03/06 02:00:15;;;;;;;2.40;1.50;;;15.30;63.50;;;;;;10444592;28;20048;-57
2023/03/06 02:05:15;;;;;;;2.13;1.20;;;15.30;63.50;;;;;;10444374;28;20041;-57
2023/03/06 02:10:18;;;;;;;1.63;1.17;;;15.20;63.20;;;;;;10428377;28;20025;-57
2023/03/06 02:15:23;;;;;;;2.80;1.50;;;15.20;63.30;;;;;;10416110;28;20021;-56
2023/03/06 02:20:38;;;;;;;2.63;1.80;;;15.20;63.40;;;;;;10444368;28;20063;-58
2023/03/06 02:25:51;;;;;;;2.38;1.33;;;15.20;63.50;;;;;;10444458;28;20029;-57
2023/03/06 02:30:54;;;;;;;2.55;1.77;;;15.20;63.50;;;;;;10444138;28;20031;-57
2023/03/06 02:36:09;;;;;;;2.35;1.50;;;15.20;63.90;;;;;;10444212;28;20526;-57
2023/03/06 02:41:09;;;;;;;2.45;1.52;;;15.10;63.40;;;;;;10428169;28;20021;-56
2023/03/06 02:46:10;;;;;;;1.90;1.20;;;15.10;63.50;;;;;;10445334;28;20015;-57
2023/03/06 02:51:11;;;;;;;3.90;1.73;;;15.10;63.40;;;;;;10443977;28;20021;-56
2023/03/06 02:56:11;;;;;;;3.42;1.83;;;15.10;63.70;;;;;;10444780;28;20029;-57
2023/03/06 03:01:12;;;;;;;2.60;1.55;;;15.00;63.70;;;;;;10444190;28;20433;-56
2023/03/06 03:06:13;;;;;;;3.00;2.00;;;15.00;63.30;;;;;;10427276;28;20102;-57
2023/03/06 03:11:13;;;;;;;2.45;1.80;;;15.10;63.40;;;;;;10453141;28;20033;-57
2023/03/06 03:16:14;;;;;;;2.05;1.42;;;15.00;63.50;;;;;;10452261;28;20017;-57
2023/03/06 03:21:16;;;;;;;2.85;1.90;;;15.00;63.30;;;;;;10450698;28;20103;-58
2023/03/06 03:26:19;;;;;;;3.10;2.03;;;15.00;63.40;;;;;;10450294;28;20388;-58
2023/03/06 03:31:20;;;;;;;3.13;1.75;;;15.00;63.60;;;;;;10450174;28;20033;-58
2023/03/06 03:36:21;;;;;;;3.75;1.63;;;14.90;63.40;;;;;;10450560;28;20019;-58
2023/03/06 03:41:22;;;;;;;4.22;1.92;;;14.90;63.40;;;;;;10451390;28;20024;-57
2023/03/06 03:46:24;;;;;;;2.90;1.80;;;14.90;63.50;;;;;;10450073;28;20056;-57
2023/03/06 03:51:25;;;;;;;3.42;2.25;;;14.90;63.30;;;;;;10450475;28;20037;-56
2023/03/06 03:56:26;;;;;;;3.85;1.80;;;14.90;63.50;;;;;;10450570;28;20520;-57
2023/03/06 04:01:27;;;;;;;2.90;1.80;;;15.00;62.60;;;;;;10448977;28;20025;-58
2023/03/06 04:06:28;;;;;;;3.78;1.50;;;15.20;62.10;;;;;;10449869;28;20055;-58
2023/03/06 04:11:28;;;;;;;2.63;1.60;;;15.40;61.80;;;;;;10450134;28;20025;-57
2023/03/06 04:16:29;;;;;;;2.53;1.33;;;15.60;60.40;;;;;;10448240;28;20021;-57
2023/03/06 04:21:30;;;;;;;6.45;1.65;;;15.80;59.90;;;;;;10447150;28;20028;-57
2023/03/06 04:26:31;;;;;;;3.13;1.98;;;16.00;59.40;;;;;;10448054;28;20021;-56
2023/03/06 04:31:31;;;;;;;3.08;1.92;;;16.20;58.80;;;;;;10447613;28;20072;-56
2023/03/06 04:36:33;;;;;;;3.15;1.60;;;16.30;58.20;;;;;;10447847;28;20108;-57
2023/03/06 04:41:34;;;;;;;2.13;1.45;;;16.40;58.00;;;;;;10447803;28;20053;-56
2023/03/06 04:46:35;;;;;;;2.42;1.33;;;16.50;57.80;;;;;;10448456;28;20111;-58
2023/03/06 04:51:36;;;;;;;2.63;1.13;;;16.50;57.90;;;;;;10448256;28;20037;-57
2023/03/06 04:56:37;;;;;;;2.55;1.40;;;16.50;58.00;;;;;;10448156;28;20017;-57
2023/03/06 05:01:38;;;;;;;2.10;1.00;;;16.40;58.30;;;;;;10442124;28;20412;-58
2023/03/06 05:06:38;;;;;;;4.47;1.38;;;16.30;58.50;;;;;;10437516;28;20037;-57
2023/03/06 05:11:39;;;;;;;3.70;1.98;;;16.20;58.70;;;;;;10421714;28;20041;-57
2023/03/06 05:16:40;;;;;;;3.05;1.80;;;16.20;58.70;;;;;;10446671;28;20013;-57
2023/03/06 05:21:40;;;;;;;2.30;1.13;;;16.20;58.80;;;;;;10443870;28;20108;-57
2023/03/06 05:26:41;;;;;;;2.70;1.42;;;16.20;58.70;;;;;;10445275;28;20447;-58
2023/03/06 05:31:42;;;;;;;2.60;1.10;;;16.20;58.80;;;;;;10445280;28;20040;-57
2023/03/06 05:36:42;;;;;;;1.33;1.13;;;16.20;58.70;;;;;;10446800;28;20100;-57
2023/03/06 05:41:43;;;;;;;4.70;3.25;;;16.30;58.70;;;;;;10445326;28;20083;-57
2023/03/06 05:46:44;;;;;;;6.80;3.33;;;16.20;59.50;;;;;;10450810;28;20626;-55
2023/03/06 05:51:44;;;;;;;6.57;3.17;;;16.40;59.50;;;;;;10444311;28;20031;-57
2023/03/06 05:56:45;;;;;;;4.85;4.32;;;16.70;60.30;;;;;;10445012;28;20560;-55
2023/03/06 06:01:46;;;;;;;5.45;3.17;;;16.90;60.10;;;;;;10441169;28;20100;-56
2023/03/06 06:06:52;;;;;;;7.78;3.50;;;17.10;60.00;;;;;;10444490;28;20128;-57
2023/03/06 06:11:56;;;;;;;7.30;4.05;;;17.30;59.80;;;;;;10445679;28;20553;-57
2023/03/06 06:16:57;;;;;;;6.93;3.00;;;17.50;60.10;;;;;;10441622;28;20017;-57
2023/03/06 06:21:58;;;;;;;9.20;3.45;;;17.60;59.70;;;;;;10441090;28;20024;-57
2023/03/06 06:26:59;;;;;;;10.05;3.15;;;17.60;58.90;;;;;;10442977;28;20604;-55
2023/03/06 06:32:00;;;;;;;16.05;3.28;;;17.60;58.60;;;;;;10444053;28;20025;-58
2023/03/06 06:37:01;;;;;;;8.07;2.75;;;17.40;59.30;;;;;;10444561;28;20033;-58
2023/03/06 06:42:02;;;;;;;6.82;2.85;;;17.70;58.60;;;;;;10428358;28;20159;-55
2023/03/06 06:47:05;;;;;;;11.75;2.90;;;17.70;58.50;;;;;;10451272;28;20017;-57
2023/03/06 06:52:06;;;;;;;8.35;2.60;;;17.70;58.80;;;;;;10449744;28;20036;-56
2023/03/06 06:57:06;;;;;;;17.02;5.35;;;17.70;58.40;;;;;;10450010;28;20033;-59
2023/03/06 07:02:10;;;;;;;13.73;3.10;;;17.80;58.10;;;;;;10448299;28;20044;-60
2023/03/06 07:07:11;;;;;;;14.82;3.15;;;17.90;58.00;;;;;;10445371;28;20106;-60
2023/03/06 07:12:11;;;;;;;16.35;3.05;;;17.70;58.00;;;;;;10447525;28;20028;-59
2023/03/06 07:17:12;;;;;;;20.77;3.42;;;17.60;59.30;;;;;;10436945;28;20096;-58
2023/03/06 07:22:13;;;;;;;14.88;1.95;;;17.70;57.90;;;;;;10422361;28;20021;-58
2023/03/06 07:27:14;;;;;;;11.75;2.58;;;17.80;57.30;;;;;;10431279;28;20013;-58
2023/03/06 07:32:14;;;;;;;10.70;1.80;;;17.90;57.00;;;;;;10448476;28;20107;-58
2023/03/06 07:37:16;;;;;;;9.18;2.50;;;17.70;57.40;;;;;;10449422;28;20013;-59
2023/03/06 07:42:16;;;;;;;8.55;1.48;;;17.80;57.00;;;;;;10449080;28;20017;-58
2023/03/06 07:47:17;;;;;;;14.40;1.90;;;17.90;56.70;;;;;;10447413;28;20029;-58
2023/03/06 07:52:18;;;;;;;6.10;1.95;;;18.00;56.70;;;;;;10446585;28;20049;-56
2023/03/06 07:57:18;;;;;;;7.20;2.08;;;17.90;56.80;;;;;;10416884;28;20029;-58
2023/03/06 08:02:19;;;;;;;12.77;2.08;;;18.00;56.70;;;;;;10462879;28;20013;-59
2023/03/06 08:07:21;;;;;;;7.43;1.38;;;17.90;57.90;;;;;;10400908;28;20239;-58
2023/03/06 08:12:21;;;;;;;8.73;2.35;;;17.80;57.70;;;;;;10441566;28;20060;-57
2023/03/06 08:17:22;;;;;;;8.43;1.60;;;17.90;58.00;;;;;;10448413;28;21427;-58
2023/03/06 08:22:23;;;;;;;10.63;1.80;;;17.90;58.20;;;;;;10448162;28;20032;-56
2023/03/06 08:27:24;;;;;;;10.40;1.60;;;17.90;58.20;;;;;;10449133;28;20568;-58
2023/03/06 08:32:25;;;;;;;6.18;1.23;;;17.90;58.50;;;;;;10447793;28;20025;-58
2023/03/06 08:37:26;;;;;;;4.28;1.08;;;17.80;59.00;;;;;;10447106;28;20075;-57
2023/03/06 08:42:26;;;;;;;8.93;1.58;;;17.70;58.90;;;;;;10446438;28;20113;-55
2023/03/06 08:47:27;;;;;;;4.35;1.55;;;17.70;59.00;;;;;;10442458;28;20097;-58
2023/03/06 08:52:28;;;;;;;3.70;1.15;;;17.60;58.40;;;;;;10442923;28;20417;-58
2023/03/06 08:57:29;;;;;;;3.78;1.00;;;17.60;58.40;;;;;;10442871;28;20532;-57
2023/03/06 09:02:30;;;;;;;10.82;1.48;;;17.40;58.60;;;;;;10442952;28;20029;-57
2023/03/06 09:07:31;;;;;;;10.95;1.77;;;17.40;58.70;;;;;;10440473;28;20056;-56
2023/03/06 09:12:32;;;;;;;8.48;1.63;;;17.20;59.20;;;;;;10437148;28;20044;-57
2023/03/06 09:17:32;;;;;;;17.92;1.58;;;17.40;58.60;;;;;;10424926;28;20490;-57
2023/03/06 09:22:34;;;;;;;8.38;1.65;;;17.20;60.20;;;;;;10414806;28;20021;-59
2023/03/06 09:27:34;;;;;;;5.65;1.65;;;17.10;60.90;;;;;;10434329;28;20104;-58
2023/03/06 09:32:35;;;;;;;4.47;1.50;;;17.00;61.10;;;;;;10443561;28;20024;-58
2023/03/06 09:37:36;;;;;;;8.43;1.90;;;17.10;61.30;;;;;;10443877;28;20096;-57
2023/03/06 09:42:37;;;;;;;7.78;1.33;;;17.00;61.50;;;;;;10426156;28;20021;-57
2023/03/06 09:48:01;;;;;;;7.15;1.88;;;16.80;62.30;;;;;;10442823;28;20488;-56
2023/03/06 09:53:35;;;;;;;13.23;1.17;;;16.80;62.50;;;;;;10389456;28;20037;-58
2023/03/06 09:58:46;;;;;;;10.10;1.20;;;16.80;62.70;;;;;;10413320;28;20041;-56
2023/03/06 10:04:37;;;;;;;7.10;0.88;;;16.80;62.80;;;;;;10447027;28;20029;-58
2023/03/06 10:10:01;;;;;;;4.35;1.00;;;16.80;62.60;;;;;;10442917;28;20041;-57
2023/03/06 10:15:24;;;;;;;2.80;0.93;;;16.80;62.90;;;;;;10444853;28;20104;-58
2023/03/06 10:20:46;;;;;;;2.67;1.50;;;16.70;62.40;;;;;;10437398;28;20342;-57
2023/03/06 10:26:08;;;;;;;1.80;0.60;;;16.60;62.30;;;;;;10449238;28;20040;-58
2023/03/06 10:31:24;;;;;;;3.70;0.70;;;16.60;62.40;;;;;;10431190;28;20660;-58
2023/03/06 10:36:27;;;;;;;3.42;0.60;;;16.60;62.30;;;;;;10449777;28;20025;-57
2023/03/06 10:41:31;;;;;;;2.20;0.68;;;16.50;62.20;;;;;;10450495;28;20032;-56
2023/03/06 10:46:45;;;;;;;3.72;0.75;;;16.50;62.10;;;;;;10451478;28;20029;-61
2023/03/06 10:52:08;;;;;;;5.00;0.80;;;16.50;61.90;;;;;;10449766;28;20037;-57
2023/03/06 10:57:29;;;;;;;2.70;0.70;;;16.60;62.10;;;;;;10448294;28;20009;-56
2023/03/06 11:02:35;;;;;;;1.48;0.43;;;16.60;62.00;;;;;;10433584;28;20025;-57
2023/03/06 11:07:51;;;;;;;3.20;0.60;;;16.50;61.90;;;;;;10432648;28;20496;-57
2023/03/06 11:13:07;;;;;;;4.63;1.80;;;16.50;61.80;;;;;;10433950;28;20076;-58
2023/03/06 11:18:07;;;;;;;5.90;0.70;;;16.60;61.70;;;;;;10448642;28;20462;-57
2023/03/06 11:23:42;;;;;;;4.63;1.05;;;16.60;61.50;;;;;;10437768;28;20116;-57
2023/03/06 11:28:56;;;;;;;3.55;0.80;;;16.60;61.50;;;;;;10447733;28;20047;-58
2023/03/06 11:34:18;;;;;;;2.47;0.52;;;16.60;61.60;;;;;;10463210;28;20086;-57
2023/03/06 11:39:48;;;;;;;2.28;0.50;;;16.60;61.80;;;;;;10441744;28;20025;-57
2023/03/06 11:45:17;;;;;;;1.10;0.50;;;16.50;61.70;;;;;;10448156;28;20108;-58
2023/03/06 11:50:34;;;;;;;2.95;0.45;;;16.50;61.80;;;;;;10446663;28;20021;-58
2023/03/06 11:56:06;;;;;;;1.52;0.50;;;16.60;61.70;;;;;;10446907;28;20461;-58
2023/03/06 12:01:50;;;;;;;2.80;0.55;;;16.60;61.90;;;;;;10433133;28;20021;-58
2023/03/06 12:07:34;;;;;;;1.17;0.57;;;16.50;62.00;;;;;;10444276;28;20071;-57
2023/03/06 12:13:05;;;;;;;6.32;0.63;;;16.50;62.10;;;;;;10447343;28;20496;-55
2023/03/06 12:18:14;;;;;;;1.33;0.40;;;16.40;62.00;;;;;;10435537;28;20030;-54
2023/03/06 12:23:49;;;;;;;3.45;0.50;;;16.50;62.20;;;;;;10445801;28;20017;-57
2023/03/06 12:29:32;;;;;;;6.82;0.80;;;16.50;62.00;;;;;;10447083;28;20490;-56
2023/03/06 12:35:03;;;;;;;5.43;0.80;;;16.50;62.30;;;;;;10430460;28;20526;-60
2023/03/06 12:40:23;;;;;;;16.30;1.27;;;16.50;62.10;;;;;;10443981;28;20016;-58
2023/03/06 12:45:35;;;;;;;4.15;0.60;;;16.50;62.30;;;;;;10446382;28;20595;-58
2023/03/06 12:50:37;;;;;;;5.95;0.88;;;16.50;62.30;;;;;;10448112;28;20561;-59
2023/03/06 12:55:45;;;;;;;8.95;1.23;;;16.40;62.20;;;;;;10442853;28;20066;-58
2023/03/06 13:01:18;;;;;;;2.97;0.60;;;16.40;62.20;;;;;;10431124;28;20021;-58
2023/03/06 13:06:37;;;;;;;3.95;0.80;;;16.30;62.10;;;;;;10444843;28;20056;-59
2023/03/06 13:12:03;;;;;;;3.17;1.27;;;16.30;62.10;;;;;;10445153;28;20037;-59
2023/03/06 13:17:24;;;;;;;12.05;1.95;;;16.20;62.10;;;;;;10442527;28;20500;-57
2023/03/06 13:22:28;;;;;;;18.35;2.65;;;16.20;62.20;;;;;;10440647;28;20104;-57
2023/03/06 13:27:53;;;;;;;11.05;1.90;;;16.50;62.00;;;;;;10440277;28;20025;-57
2023/03/06 13:32:55;;;;;;;17.90;3.85;;;16.60;61.50;;;;;;10427755;28;20037;-58
2023/03/06 13:37:58;;;;;;;10.95;1.67;;;16.40;62.40;;;;;;10435818;28;20084;-58
2023/03/06 13:43:05;;;;;;;8.77;1.80;;;16.40;62.90;;;;;;10430916;28;20028;-56
2023/03/06 13:48:26;;;;;;;12.48;3.00;;;16.40;63.00;;;;;;10442894;28;20017;-58
2023/03/06 13:54:09;;;;;;;9.13;1.83;;;16.30;63.20;;;;;;10455363;28;20029;-58
2023/03/06 13:59:20;;;;;;;13.75;1.58;;;16.30;63.30;;;;;;10454075;28;20028;-56
2023/03/06 14:04:52;;;;;;;9.38;1.85;;;16.30;63.40;;;;;;10419342;28;20432;-56
2023/03/06 14:10:11;;;;;;;13.02;1.92;;;16.30;63.40;;;;;;10444689;28;20396;-55
2023/03/06 14:15:20;;;;;;;13.13;2.37;;;16.40;63.30;;;;;;10436320;28;20017;-54
2023/03/06 14:20:41;;;;;;;16.33;2.92;;;16.50;62.60;;;;;;10441865;28;20025;-56
2023/03/06 14:25:44;;;;;;;9.48;2.28;;;16.90;62.00;;;;;;10430793;28;20013;-57
2023/03/06 14:30:50;;;;;;;19.77;2.63;;;16.90;61.40;;;;;;10419704;28;20021;-56
2023/03/06 14:36:00;;;;;;;14.48;2.15;;;16.80;61.80;;;;;;10441706;28;20013;-58
2023/03/06 14:41:02;;;;;;;11.20;3.33;;;16.70;61.50;;;;;;10441334;28;20108;-55
2023/03/06 14:46:05;;;;;;;9.95;2.75;;;16.80;61.10;;;;;;10441724;28;20017;-58
2023/03/06 14:51:24;;;;;;;12.35;2.15;;;16.80;60.70;;;;;;10441300;28;20061;-58
2023/03/06 14:56:26;;;;;;;17.40;3.13;;;16.80;60.60;;;;;;10441760;28;20056;-58
2023/03/06 15:01:40;;;;;;;15.20;3.47;;;16.80;60.90;;;;;;10440823;28;20071;-58
2023/03/06 15:06:42;;;;;;;18.58;2.75;;;16.90;60.70;;;;;;10449193;28;20041;-58
2023/03/06 15:12:19;;;;;;;21.85;3.33;;;16.90;60.60;;;;;;10450935;28;20033;-56
2023/03/06 15:17:27;;;;;;;10.93;2.00;;;17.00;60.70;;;;;;10421270;28;20029;-58
2023/03/06 15:22:40;;;;;;;10.18;2.10;;;17.00;60.70;;;;;;10443716;28;20703;-57
2023/03/06 15:27:51;;;;;;;12.30;2.40;;;16.90;60.80;;;;;;10433279;28;20017;-58
2023/03/06 15:33:22;;;;;;;14.25;3.28;;;16.80;61.50;;;;;;10430768;28;20025;-58
2023/03/06 15:38:43;;;;;;;7.70;1.88;;;16.70;61.90;;;;;;10443833;28;20469;-57
2023/03/06 15:43:44;;;;;;;9.30;3.03;;;16.80;61.80;;;;;;10446748;28;20028;-55
2023/03/06 15:49:16;;;;;;;12.07;2.00;;;17.10;60.60;;;;;;10446332;28;20032;-56
2023/03/06 15:54:17;;;;;;;10.45;2.70;;;17.40;59.80;;;;;;10441771;28;20103;-57
2023/03/06 15:59:25;;;;;;;13.18;2.05;;;17.60;59.20;;;;;;10422722;28;20031;-58
2023/03/06 16:04:25;;;;;;;8.20;2.15;;;17.70;59.30;;;;;;10435239;28;20041;-57
2023/03/06 16:09:26;;;;;;;11.82;2.17;;;17.90;58.40;;;;;;10430941;28;20137;-58
2023/03/06 16:14:27;;;;;;;9.02;1.95;;;18.10;57.70;;;;;;10440268;28;20108;-55
2023/03/06 16:19:27;;;;;;;12.00;1.73;;;18.00;57.90;;;;;;10445842;28;20040;-57
2023/03/06 16:24:28;;;;;;;15.55;2.42;;;17.80;59.60;;;;;;10438049;28;20061;-56
2023/03/06 16:29:29;;;;;;;14.20;2.33;;;17.80;59.80;;;;;;10423808;28;20103;-55
2023/03/06 16:34:30;;;;;;;13.25;2.22;;;17.70;60.10;;;;;;10436532;28;20111;-55
2023/03/06 16:39:30;;;;;;;8.15;2.22;;;17.90;60.20;;;;;;10431114;28;20468;-55
2023/03/06 16:44:31;;;;;;;13.20;2.35;;;17.90;60.00;;;;;;10436222;28;20013;-55
2023/03/06 16:49:32;;;;;;;11.60;3.10;;;17.90;60.30;;;;;;10441484;28;20100;-55
2023/03/06 16:54:32;;;;;;;9.63;1.98;;;17.80;60.70;;;;;;10442818;28;20114;-55
2023/03/06 16:59:33;;;;;;;10.93;3.15;;;17.80;60.30;;;;;;10444743;28;20041;-56
2023/03/06 17:04:34;;;;;;;25.83;22.13;;;17.90;59.30;;;;;;10445011;28;20029;-57
2023/03/06 17:09:35;;;;;;;22.05;14.50;;;18.20;60.90;;;;;;10446469;28;20037;-55
2023/03/06 17:14:37;;;;;;;19.17;10.65;;;18.10;60.30;;;;;;10438602;28;20036;-55
2023/03/06 17:19:38;;;;;;;11.82;9.43;;;18.10;60.80;;;;;;10430127;28;20050;-55
2023/03/06 17:24:39;;;;;;;15.70;9.15;;;18.20;61.50;;;;;;10417574;28;20080;-56
2023/03/06 17:29:40;;;;;;;12.15;7.72;;;18.10;61.10;;;;;;10410932;28;20136;-55
2023/03/06 17:34:40;;;;;;;30.00;7.90;;;18.00;61.50;;;;;;10433838;28;20056;-56
2023/03/06 17:39:41;;;;;;;23.35;8.95;;;18.00;60.90;;;;;;10421894;28;20107;-57
2023/03/06 17:44:42;;;;;;;24.27;6.97;;;17.90;60.70;;;;;;10425246;28;20029;-56
2023/03/06 17:49:43;;;;;;;17.08;7.57;;;17.90;60.20;;;;;;10429872;28;20097;-56
2023/03/06 17:54:43;;;;;;;13.38;5.60;;;17.80;60.30;;;;;;10425751;28;20057;-57
2023/03/06 17:59:47;;;;;;;9.68;6.10;;;17.60;61.00;;;;;;10421852;28;20022;-56
2023/03/06 18:04:48;;;;;;;13.27;6.22;;;17.80;60.10;;;;;;10429170;28;20021;-55
2023/03/06 18:09:48;;;;;;;19.45;5.88;;;17.70;61.30;;;;;;10430201;28;20481;-55
2023/03/06 18:14:49;;;;;;;15.55;4.43;;;17.70;60.10;;;;;;10444730;28;20043;-57
2023/03/06 18:19:50;;;;;;;12.50;5.35;;;17.70;59.90;;;;;;10445341;28;20147;-57
2023/03/06 18:24:51;;;;;;;12.40;5.32;;;17.80;59.00;;;;;;10438295;28;20013;-56
2023/03/06 18:29:54;;;;;;;9.02;3.88;;;17.80;58.90;;;;;;10437241;28;20029;-56
2023/03/06 18:34:55;;;;;;;9.25;4.55;;;17.70;59.40;;;;;;10428455;28;20017;-55
2023/03/06 18:39:55;;;;;;;10.13;3.90;;;17.70;59.60;;;;;;10444160;28;20492;-57
2023/03/06 18:44:56;;;;;;;11.25;4.18;;;17.60;59.70;;;;;;10453743;28;20104;-57
2023/03/06 18:49:57;;;;;;;11.40;5.07;;;17.60;59.60;;;;;;10436675;28;20033;-57
2023/03/06 18:54:57;;;;;;;13.55;4.82;;;17.60;59.60;;;;;;10443865;28;20023;-58
2023/03/06 18:59:58;;;;;;;9.50;3.90;;;17.70;59.50;;;;;;10452000;28;20102;-57
2023/03/06 19:04:58;;;;;;;11.63;3.83;;;17.70;59.50;;;;;;10452546;28;20083;-57
2023/03/06 19:09:59;;;;;;;7.32;3.88;;;17.80;59.20;;;;;;10434939;28;20448;-56
2023/03/06 19:15:02;;;;;;;7.95;3.72;;;17.90;59.00;;;;;;10453020;28;20171;-56
2023/03/06 19:20:04;;;;;;;6.38;3.97;;;18.10;59.00;;;;;;10452719;28;20013;-57
2023/03/06 19:25:06;;;;;;;8.43;3.60;;;18.30;58.70;;;;;;10450957;28;20025;-57
2023/03/06 19:30:08;;;;;;;9.90;4.40;;;18.40;59.20;;;;;;10449665;28;20036;-57
2023/03/06 19:35:09;;;;;;;13.43;5.05;;;18.50;59.90;;;;;;10450270;28;20115;-56
2023/03/06 19:40:11;;;;;;;8.30;3.97;;;18.50;60.80;;;;;;10451550;28;20018;-57
2023/03/06 19:45:11;;;;;;;9.45;4.47;;;18.50;59.90;;;;;;10448705;28;20027;-57
2023/03/06 19:50:12;;;;;;;10.60;5.10;;;18.50;59.90;;;;;;10448849;28;20468;-55
2023/03/06 19:55:13;;;;;;;10.20;8.05;;;18.50;59.70;;;;;;10448208;28;20041;-58
2023/03/06 20:00:14;;;;;;;7.75;6.95;;;18.70;60.00;;;;;;10448221;28;20100;-57
2023/03/06 20:05:15;;;;;;;12.10;6.82;;;18.40;60.20;;;;;;10447621;28;20021;-56
2023/03/06 20:10:16;;;;;;;10.15;7.28;;;18.10;61.10;;;;;;10448222;28;20036;-56
2023/03/06 20:15:19;;;;;;;8.73;7.10;;;18.00;61.20;;;;;;10447117;28;20028;-55
2023/03/06 20:20:19;;;;;;;10.77;6.93;;;17.90;61.70;;;;;;10447244;28;20021;-57
2023/03/06 20:25:21;;;;;;;9.95;7.03;;;17.90;61.70;;;;;;10447584;28;20102;-57
2023/03/06 20:30:22;;;;;;;8.95;6.80;;;17.90;61.10;;;;;;10436300;28;20091;-57
2023/03/06 20:35:22;;;;;;;9.20;7.43;;;17.90;61.50;;;;;;10446968;28;20092;-57
2023/03/06 20:40:23;;;;;;;7.05;6.22;;;17.80;61.40;;;;;;10448248;28;20063;-58
2023/03/06 20:45:24;;;;;;;10.27;6.38;;;17.60;61.50;;;;;;10447756;28;20096;-57
2023/03/06 20:50:25;;;;;;;7.65;6.68;;;17.50;61.60;;;;;;10431081;28;20669;-57
2023/03/06 20:55:25;;;;;;;8.52;6.68;;;17.40;61.80;;;;;;10456444;28;20031;-58
2023/03/06 21:00:26;;;;;;;10.88;7.18;;;17.30;61.80;;;;;;10444893;28;20594;-58
2023/03/06 21:05:27;;;;;;;6.00;5.40;;;17.20;62.00;;;;;;10446847;28;20352;-57
2023/03/06 21:10:29;;;;;;;5.88;5.28;;;17.10;62.30;;;;;;10447227;28;20106;-57
2023/03/06 21:15:30;;;;;;;7.03;5.85;;;17.00;62.50;;;;;;10443586;28;20010;-57
2023/03/06 21:20:32;;;;;;;8.18;6.47;;;16.90;62.50;;;;;;10444063;28;20070;-57
2023/03/06 21:25:33;;;;;;;7.43;5.88;;;16.90;62.50;;;;;;10445633;28;20017;-57
2023/03/06 21:30:33;;;;;;;8.05;5.72;;;16.80;62.70;;;;;;10447049;28;20040;-57
2023/03/06 21:35:37;;;;;;;8.10;5.50;;;16.70;62.80;;;;;;10445741;28;20063;-57
2023/03/06 21:40:39;;;;;;;8.13;5.75;;;16.70;62.90;;;;;;10429193;28;20028;-56
2023/03/06 21:45:44;;;;;;;7.07;6.05;;;16.60;62.90;;;;;;10445630;28;20381;-57
2023/03/06 21:50:45;;;;;;;6.75;4.90;;;16.60;62.90;;;;;;10431726;28;20044;-57
2023/03/06 21:55:45;;;;;;;6.40;5.70;;;16.50;63.00;;;;;;10446584;28;20096;-57
2023/03/06 22:00:46;;;;;;;7.53;5.20;;;16.50;63.10;;;;;;10445108;28;20113;-57
2023/03/06 22:05:47;;;;;;;5.10;4.40;;;16.40;63.00;;;;;;10444844;28;20166;-56
2023/03/06 22:10:48;;;;;;;6.53;4.90;;;16.30;63.00;;;;;;10445716;28;20136;-57
2023/03/06 22:15:52;;;;;;;7.40;5.25;;;16.30;63.00;;;;;;10441645;28;20100;-57
2023/03/06 22:20:52;;;;;;;5.47;4.70;;;16.30;63.20;;;;;;10457362;28;20379;-57
2023/03/06 22:25:53;;;;;;;7.85;5.57;;;16.20;63.20;;;;;;10457488;28;20064;-57
2023/03/06 22:30:54;;;;;;;5.30;4.80;;;16.20;63.10;;;;;;10457835;28;20679;-56
2023/03/06 22:36:01;;;;;;;6.10;4.28;;;16.20;63.10;;;;;;10442051;28;20096;-57
2023/03/06 22:41:02;;;;;;;5.70;4.78;;;16.10;63.10;;;;;;10441793;28;20025;-57
2023/03/06 22:46:10;;;;;;;5.13;3.65;;;16.10;63.60;;;;;;10441135;28;20029;-57
2023/03/06 22:51:19;;;;;;;5.03;4.20;;;16.10;62.90;;;;;;10433085;28;20123;-57
2023/03/06 22:56:21;;;;;;;5.93;3.97;;;16.00;63.00;;;;;;10458013;28;20017;-56
2023/03/06 23:01:25;;;;;;;4.68;4.03;;;16.00;63.10;;;;;;10457799;28;20103;-57
2023/03/06 23:06:34;;;;;;;4.57;3.55;;;15.90;62.80;;;;;;10457569;28;20045;-57
2023/03/06 23:11:35;;;;;;;4.67;4.00;;;15.90;62.90;;;;;;10457506;28;20033;-57
2023/03/06 23:16:36;;;;;;;5.05;3.72;;;15.90;62.80;;;;;;10454845;28;20108;-57
2023/03/06 23:21:37;;;;;;;4.68;3.90;;;15.90;62.80;;;;;;10457436;28;20083;-57
2023/03/06 23:26:39;;;;;;;3.97;3.55;;;15.90;62.80;;;;;;10450496;28;20056;-57
2023/03/06 23:31:40;;;;;;;4.22;3.33;;;15.90;62.80;;;;;;10452303;28;20032;-56
2023/03/06 23:36:40;;;;;;;3.90;3.10;;;15.80;62.70;;;;;;10450578;28;20842;-57
2023/03/06 23:41:41;;;;;;;3.88;3.20;;;15.80;62.60;;;;;;10433274;28;20126;-57
2023/03/06 23:46:42;;;;;;;2.95;2.45;;;15.80;62.70;;;;;;10450874;28;20112;-57
2023/03/06 23:51:42;;;;;;;4.60;3.40;;;15.80;62.60;;;;;;10437826;28;20124;-57
2023/03/06 23:56:43;;;;;;;3.72;2.90;;;15.80;62.70;;;;;;10449368;28;20045;-56
